Time;durP1;ratioP1;P1;durP2;ratioP2;P2;SDS_P1;SDS_P2;PMS_P1;PMS_P2;Temp;Humidity;BMP_temperature;BMP_pressure;BME280_temperature;BME280_humidity;BME280_pressure;Samples;Min_cycle;Max_cycle;Signal;HPM_P1;HPM_P2
2021/12/02 00:00:39;;;;;;;4.85;2.83;;;;;;;-5.27;70.82;97538.66;4920020;29;20051;-70
2021/12/02 00:03:07;;;;;;;3.53;2.45;;;;;;;-5.16;70.69;97533.84;4937935;28;20046;-70
2021/12/02 00:05:32;;;;;;;3.38;2.53;;;;;;;-5.15;70.34;97535.53;4920410;29;20094;-69
2021/12/02 00:07:56;;;;;;;3.90;2.08;;;;;;;-5.10;70.62;97550.09;4926134;29;20142;-70
2021/12/02 00:10:27;;;;;;;4.80;3.33;;;;;;;-5.30;70.56;97550.91;4903809;29;20091;-69
2021/12/02 00:12:56;;;;;;;6.50;2.70;;;;;;;-5.23;70.74;97545.41;4888856;29;20035;-71
2021/12/02 00:15:24;;;;;;;3.72;2.10;;;;;;;-5.21;70.49;97553.16;4906162;29;20071;-73
2021/12/02 00:17:56;;;;;;;5.38;2.83;;;;;;;-5.09;70.86;97551.78;4927734;29;20103;-71
2021/12/02 00:23:29;;;;;;;3.95;2.97;;;;;;;-5.05;70.19;97556.75;4908008;29;20050;-72
2021/12/02 00:25:56;;;;;;;4.10;3.28;;;;;;;-5.21;69.89;97566.13;4917034;29;20047;-76
2021/12/02 00:28:22;;;;;;;3.92;2.83;;;;;;;-5.23;70.24;97575.72;4885786;29;20047;-75
2021/12/02 00:30:47;;;;;;;4.07;2.72;;;;;;;-5.19;70.32;97583.31;4885411;29;20118;-77
2021/12/02 00:33:15;;;;;;;3.60;2.58;;;;;;;-5.23;70.27;97592.16;4899954;29;20035;-77
2021/12/02 00:35:40;;;;;;;2.28;1.88;;;;;;;-5.26;70.80;97575.84;4884761;29;20130;-68
2021/12/02 00:38:05;;;;;;;3.97;2.88;;;;;;;-5.37;70.86;97581.50;4907695;29;20078;-76
2021/12/02 00:40:34;;;;;;;4.32;3.33;;;;;;;-5.11;70.85;97596.00;4888095;29;20067;-75
2021/12/02 00:42:59;;;;;;;4.53;2.88;;;;;;;-5.20;71.02;97586.00;4897193;29;20043;-73
2021/12/02 00:45:26;;;;;;;5.60;2.65;;;;;;;-5.22;71.14;97598.19;4927890;29;20063;-76
2021/12/02 00:47:51;;;;;;;3.75;2.40;;;;;;;-5.15;70.88;97608.25;4901839;29;20047;-80
2021/12/02 00:50:16;;;;;;;3.88;3.15;;;;;;;-5.08;70.42;97608.88;4923784;28;20532;-79
2021/12/02 00:52:41;;;;;;;3.70;2.08;;;;;;;-5.12;70.18;97608.16;4887529;29;20047;-77
2021/12/02 00:55:07;;;;;;;3.92;2.65;;;;;;;-5.00;70.60;97611.13;4915897;29;20118;-75
2021/12/02 00:57:32;;;;;;;2.95;1.88;;;;;;;-4.90;70.32;97628.03;4894743;29;20073;-72
2021/12/02 00:59:59;;;;;;;3.70;1.95;;;;;;;-4.98;69.74;97622.31;4922474;29;20062;-74
2021/12/02 01:02:24;;;;;;;3.30;2.20;;;;;;;-4.93;69.79;97630.75;4922725;29;20043;-76
2021/12/02 01:04:49;;;;;;;2.38;1.88;;;;;;;-4.91;70.13;97629.78;4890888;29;20034;-73
2021/12/02 01:07:14;;;;;;;2.25;1.98;;;;;;;-4.84;69.88;97632.97;4897090;29;20051;-73
2021/12/02 01:09:39;;;;;;;2.53;1.65;;;;;;;-4.79;69.81;97637.06;4887459;29;20065;-74
2021/12/02 01:12:04;;;;;;;3.08;1.88;;;;;;;-4.87;69.19;97636.56;4904840;29;20060;-74
2021/12/02 01:14:29;;;;;;;3.40;2.15;;;;;;;-4.81;69.77;97638.88;4907712;29;20039;-74
2021/12/02 01:16:54;;;;;;;3.63;1.98;;;;;;;-4.76;69.05;97639.53;4904943;29;20039;-74
2021/12/02 01:19:19;;;;;;;2.15;1.40;;;;;;;-4.71;68.98;97633.28;4903565;29;20414;-73
2021/12/02 01:21:48;;;;;;;3.80;2.53;;;;;;;-4.69;68.97;97654.88;4920747;29;20059;-73
2021/12/02 01:24:15;;;;;;;2.47;1.63;;;;;;;-4.71;69.26;97651.47;4930488;29;20059;-75
2021/12/02 01:26:41;;;;;;;2.10;1.55;;;;;;;-4.72;69.00;97657.59;4924027;28;20094;-72
2021/12/02 01:29:06;;;;;;;1.73;1.55;;;;;;;-4.82;68.79;97654.53;4928835;29;20070;-72
2021/12/02 01:31:34;;;;;;;4.95;3.05;;;;;;;-4.87;68.29;97652.16;4927625;29;20047;-71
2021/12/02 01:34:08;;;;;;;4.07;1.83;;;;;;;-4.89;68.93;97651.34;4926534;29;20134;-75
2021/12/02 01:36:37;;;;;;;2.70;1.58;;;;;;;-4.80;69.42;97663.13;4909496;29;20043;-72
2021/12/02 01:39:04;;;;;;;5.00;3.00;;;;;;;-4.78;69.01;97664.75;4923091;29;20035;-71
2021/12/02 01:41:36;;;;;;;2.78;2.40;;;;;;;-4.83;68.40;97664.09;4922162;29;20027;-68
2021/12/02 01:44:01;;;;;;;2.22;1.75;;;;;;;-4.74;68.83;97665.47;4939570;29;20031;-72
2021/12/02 01:46:26;;;;;;;2.50;1.85;;;;;;;-4.75;69.21;97666.38;4941294;29;20058;-74
2021/12/02 01:49:02;;;;;;;3.15;2.08;;;;;;;-4.71;68.78;97656.69;4940420;29;20050;-76
2021/12/02 01:51:28;;;;;;;3.38;1.70;;;;;;;-4.77;68.09;97653.44;4909805;29;20043;-74
2021/12/02 01:54:02;;;;;;;3.38;1.75;;;;;;;-4.69;69.09;97667.88;4924970;29;20027;-68
2021/12/02 01:56:30;;;;;;;1.65;1.55;;;;;;;-4.79;68.22;97668.25;4940347;29;20106;-76
2021/12/02 01:59:07;;;;;;;4.05;2.17;;;;;;;-4.94;67.74;97661.09;4907851;29;20102;-75
2021/12/02 02:01:36;;;;;;;1.42;1.23;;;;;;;-4.78;68.92;97667.34;4924061;29;20031;-76
2021/12/02 02:04:01;;;;;;;2.35;1.55;;;;;;;-4.81;68.14;97671.81;4908332;29;20043;-74
2021/12/02 02:06:36;;;;;;;1.83;1.58;;;;;;;-4.87;67.30;97672.09;4924122;29;20051;-74
2021/12/02 02:09:01;;;;;;;1.98;1.58;;;;;;;-4.96;66.89;97669.84;4940718;29;20074;-74
2021/12/02 02:11:30;;;;;;;2.90;1.45;;;;;;;-5.05;67.56;97684.06;4923625;29;20055;-73
2021/12/02 02:13:56;;;;;;;2.13;1.60;;;;;;;-5.08;68.15;97691.16;4940262;29;20055;-75
2021/12/02 02:16:21;;;;;;;1.30;1.20;;;;;;;-5.04;67.83;97680.56;4940608;29;20043;-72
2021/12/02 02:18:46;;;;;;;1.58;1.48;;;;;;;-5.10;67.45;97665.25;4918504;29;20769;-74
2021/12/02 02:21:15;;;;;;;2.83;1.63;;;;;;;-5.07;68.35;97691.06;4890285;29;20042;-72
2021/12/02 02:23:45;;;;;;;2.92;1.83;;;;;;;-5.02;68.01;97696.94;4905967;29;20090;-76
2021/12/02 02:26:10;;;;;;;2.38;1.58;;;;;;;-4.87;68.71;97685.09;4889788;29;20051;-72
2021/12/02 02:28:35;;;;;;;3.10;1.27;;;;;;;-4.80;68.84;97699.50;4889089;29;20137;-73
2021/12/02 02:31:00;;;;;;;2.10;1.38;;;;;;;-4.87;67.98;97698.94;4905633;29;20050;-74
2021/12/02 02:33:33;;;;;;;2.60;2.13;;;;;;;-4.91;67.78;97707.75;4889304;29;20043;-75
2021/12/02 02:35:58;;;;;;;2.17;1.50;;;;;;;-4.91;68.16;97694.75;4920559;29;20122;-74
2021/12/02 02:38:23;;;;;;;1.55;1.25;;;;;;;-4.78;68.55;97695.09;4919019;28;20138;-74
2021/12/02 02:40:48;;;;;;;5.53;1.70;;;;;;;-4.77;68.02;97702.84;4902523;29;20051;-71
2021/12/02 02:43:21;;;;;;;0.73;0.73;;;;;;;-4.77;67.45;97704.59;4919927;29;20501;-81
2021/12/02 02:45:46;;;;;;;1.13;1.08;;;;;;;-4.65;68.06;97713.63;4887803;29;20055;-67
2021/12/02 02:48:11;;;;;;;1.40;1.30;;;;;;;-4.73;67.25;97713.94;4919733;29;20103;-70
2021/12/02 02:50:36;;;;;;;1.58;1.42;;;;;;;-4.68;67.95;97721.53;4919408;29;20051;-73
2021/12/02 02:53:17;;;;;;;2.05;1.45;;;;;;;-4.70;67.90;97710.38;4918703;29;20541;-71
2021/12/02 02:55:49;;;;;;;1.45;1.17;;;;;;;-4.68;67.32;97713.75;4920150;29;20035;-71
2021/12/02 02:58:23;;;;;;;1.95;1.02;;;;;;;-4.62;68.09;97721.28;4888093;29;20046;-74
2021/12/02 03:01:03;;;;;;;1.58;1.15;;;;;;;-4.55;68.00;97715.78;4921345;29;20090;-73
2021/12/02 03:08:53;;;;;;;1.48;1.38;;;;;;;-4.86;66.47;97736.16;4920381;29;20377;-71
2021/12/02 03:11:19;;;;;;;2.97;1.33;;;;;;;-4.96;67.37;97740.84;4903875;29;20062;-76
2021/12/02 03:13:51;;;;;;;1.08;0.98;;;;;;;-5.01;67.65;97737.59;4904075;29;20498;-73
2021/12/02 03:18:59;;;;;;;2.35;1.13;;;;;;;-4.95;67.36;97724.34;4921721;29;20039;-74
2021/12/02 03:21:24;;;;;;;0.98;0.73;;;;;;;-5.03;66.82;97720.38;4921644;29;20046;-74
2021/12/02 03:23:55;;;;;;;0.88;0.88;;;;;;;-4.99;67.62;97734.94;4933896;29;20027;-71
2021/12/02 03:26:20;;;;;;;2.45;1.65;;;;;;;-5.12;67.48;97739.78;4938239;29;20081;-74
2021/12/02 03:28:47;;;;;;;3.65;2.08;;;;;;;-5.17;68.11;97747.75;4922865;29;20058;-72
2021/12/02 03:31:13;;;;;;;2.70;1.75;;;;;;;-5.22;68.26;97743.66;4907054;29;20037;-73
2021/12/02 03:33:37;;;;;;;2.15;1.20;;;;;;;-5.12;68.73;97747.56;4939266;29;20051;-71
2021/12/02 03:36:02;;;;;;;2.10;1.60;;;;;;;-5.14;68.15;97746.78;4939194;29;20066;-69
2021/12/02 03:38:28;;;;;;;3.53;1.95;;;;;;;-5.18;67.93;97750.41;4903208;29;20049;-71
2021/12/02 03:40:53;;;;;;;2.33;1.40;;;;;;;-5.12;68.48;97742.38;4920034;29;20055;-69
2021/12/02 03:43:18;;;;;;;2.70;1.40;;;;;;;-5.09;68.25;97747.47;4919776;29;20043;-69
2021/12/02 03:45:42;;;;;;;4.15;2.25;;;;;;;-5.12;67.92;97756.22;4903110;29;20047;-69
2021/12/02 03:48:07;;;;;;;2.45;1.70;;;;;;;-5.07;68.64;97756.00;4919291;29;20058;-68
2021/12/02 03:50:32;;;;;;;2.72;1.75;;;;;;;-5.10;68.14;97753.56;4917629;29;20085;-68
2021/12/02 03:52:56;;;;;;;3.05;1.75;;;;;;;-5.02;68.58;97756.69;4901151;29;20047;-68
2021/12/02 03:55:23;;;;;;;2.05;1.38;;;;;;;-5.05;68.50;97755.97;4919295;29;20035;-68
2021/12/02 03:57:48;;;;;;;2.05;1.85;;;;;;;-5.20;67.95;97763.47;4890170;29;20450;-69
2021/12/02 04:00:13;;;;;;;1.73;1.63;;;;;;;-5.12;68.81;97765.75;4902420;29;20525;-67
2021/12/02 04:02:38;;;;;;;3.50;2.03;;;;;;;-5.14;68.93;97778.81;4901196;29;20485;-68
2021/12/02 04:05:02;;;;;;;3.58;2.28;;;;;;;-5.21;68.95;97771.31;4906004;29;20612;-70
2021/12/02 04:07:27;;;;;;;2.35;2.08;;;;;;;-5.24;68.77;97774.03;4903399;29;20476;-69
2021/12/02 04:09:53;;;;;;;6.40;2.42;;;;;;;-5.23;69.27;97781.75;4905039;29;20063;-69
2021/12/02 11:19:33;;;;;;;7.38;3.22;;;;;;;-3.90;66.93;97758.09;5294441;23;20066;-72
2021/12/02 11:22:10;;;;;;;4.70;3.10;;;;;;;-3.83;66.41;97767.31;4938424;28;20063;-75
2021/12/02 11:24:35;;;;;;;5.85;2.88;;;;;;;-3.76;67.32;97768.75;4937235;28;20051;-74
2021/12/02 11:27:15;;;;;;;6.03;3.10;;;;;;;-3.64;67.01;97751.72;4926096;28;20050;-74
2021/12/02 11:29:51;;;;;;;5.50;3.22;;;;;;;-3.58;67.14;97754.91;4896485;29;20139;-75
2021/12/02 11:32:26;;;;;;;7.13;3.47;;;;;;;-3.69;66.83;97744.13;4921778;28;20054;-73
2021/12/02 11:35:04;;;;;;;3.80;2.72;;;;;;;-3.60;67.86;97741.09;4901815;29;20043;-74
2021/12/02 11:37:29;;;;;;;4.53;2.70;;;;;;;-3.53;67.67;97739.06;4886232;29;20066;-75
2021/12/02 11:39:55;;;;;;;1.85;1.13;;;;;;;-3.36;67.80;97726.09;4918750;29;20387;-74
2021/12/02 11:42:21;;;;;;;6.18;3.63;;;;;;;-3.62;67.89;97719.50;4919866;28;20077;-75
2021/12/02 11:44:46;;;;;;;4.07;2.40;;;;;;;-3.56;68.60;97714.00;4911778;29;20070;-75
2021/12/02 11:47:11;;;;;;;3.72;2.70;;;;;;;-3.59;68.18;97719.34;4900923;29;20039;-74
2021/12/02 11:49:36;;;;;;;5.03;2.92;;;;;;;-3.59;69.04;97703.72;4903069;28;20061;-73
2021/12/02 11:52:01;;;;;;;4.60;2.92;;;;;;;-3.70;69.29;97711.19;4927433;28;20121;-74
2021/12/02 11:54:27;;;;;;;5.90;3.20;;;;;;;-3.82;71.00;97707.38;4910788;28;20126;-72
2021/12/02 11:56:52;;;;;;;4.68;2.72;;;;;;;-3.66;69.78;97707.53;4879392;28;20046;-72
2021/12/02 11:59:17;;;;;;;3.10;2.50;;;;;;;-3.72;70.09;97703.44;4935042;28;20043;-73
2021/12/02 12:01:43;;;;;;;3.75;2.40;;;;;;;-3.75;70.56;97707.97;4937841;28;20105;-74
2021/12/02 12:04:10;;;;;;;2.92;1.98;;;;;;;-3.67;70.56;97706.69;4937421;28;20050;-76
2021/12/02 12:06:38;;;;;;;8.25;3.45;;;;;;;-3.90;71.96;97709.47;4903218;29;20482;-74
2021/12/02 12:09:11;;;;;;;4.63;2.53;;;;;;;-3.95;73.98;97705.41;4901576;29;20046;-74
2021/12/02 12:11:36;;;;;;;5.88;3.38;;;;;;;-3.85;72.94;97707.53;4901176;29;20530;-74
2021/12/02 12:14:08;;;;;;;5.53;3.50;;;;;;;-3.89;73.87;97702.50;4918679;29;20529;-76
2021/12/02 12:16:34;;;;;;;9.77;4.43;;;;;;;-4.03;74.58;97697.91;4907803;28;20039;-74
2021/12/02 12:19:20;;;;;;;11.82;4.30;;;;;;;-3.89;76.08;97705.97;4901209;28;20162;-73
2021/12/02 12:21:58;;;;;;;5.18;2.80;;;;;;;-3.84;76.15;97697.97;4913472;28;20039;-75
2021/12/02 12:24:44;;;;;;;7.03;4.00;;;;;;;-3.80;76.71;97694.28;4925781;28;20042;-75
2021/12/02 12:27:21;;;;;;;15.27;4.40;;;;;;;-3.94;77.36;97692.28;4910457;28;20409;-76
2021/12/02 12:30:10;;;;;;;7.28;4.10;;;;;;;-3.81;76.04;97682.19;4909506;28;20489;-74
2021/12/02 12:38:20;;;;;;;8.57;3.80;;;;;;;-3.69;74.23;97668.59;4906723;28;20047;-75
2021/12/02 12:40:49;;;;;;;4.25;3.00;;;;;;;-3.65;74.30;97667.56;4913049;28;20085;-75
2021/12/02 12:43:13;;;;;;;11.38;4.25;;;;;;;-3.62;74.39;97661.38;4890615;28;20072;-74
2021/12/02 12:45:42;;;;;;;6.80;4.53;;;;;;;-3.69;74.94;97671.22;4926847;28;20073;-73
2021/12/02 12:48:09;;;;;;;8.30;4.43;;;;;;;-3.96;76.65;97664.69;4925936;28;20070;-74
2021/12/02 12:50:36;;;;;;;5.57;3.35;;;;;;;-3.84;76.48;97661.53;4895411;28;20039;-76
2021/12/02 12:53:04;;;;;;;8.23;4.45;;;;;;;-3.93;77.67;97657.56;4903956;29;20500;-75
2021/12/02 12:55:30;;;;;;;10.63;5.55;;;;;;;-4.00;78.90;97673.53;4918054;28;20055;-71
2021/12/02 12:58:13;;;;;;;7.97;4.43;;;;;;;-3.83;78.16;97669.22;4933630;28;20055;-69
2021/12/02 13:00:50;;;;;;;6.28;2.92;;;;;;;-3.89;79.41;97664.31;4908098;28;20051;-70
2021/12/02 13:03:30;;;;;;;5.60;2.63;;;;;;;-3.62;77.83;97651.81;4928509;28;20039;-71
2021/12/02 13:06:05;;;;;;;5.13;4.03;;;;;;;-3.50;76.13;97653.00;4913304;28;20046;-75
2021/12/02 13:08:40;;;;;;;;;;;;;;;-3.47;76.01;97639.81;4904454;28;20579;-71
2021/12/02 13:11:22;;;;;;;5.90;3.10;;;;;;;-3.66;76.94;97634.63;4887109;29;19925;-72
2021/12/02 13:13:49;;;;;;;8.32;3.53;;;;;;;-3.68;76.26;97631.25;4927396;28;20043;-70
2021/12/02 13:16:18;;;;;;;6.10;2.90;;;;;;;-3.63;76.53;97637.09;4919791;28;20579;-73
2021/12/02 13:18:46;;;;;;;9.77;4.70;;;;;;;-3.71;76.44;97632.22;4932513;29;20062;-73
2021/12/02 13:21:20;;;;;;;5.70;3.85;;;;;;;-3.55;76.01;97627.16;4933017;28;20098;-74
2021/12/02 13:24:05;;;;;;;6.25;3.00;;;;;;;-3.53;76.06;97620.13;4912949;28;20031;-79
2021/12/02 13:26:45;;;;;;;5.57;3.30;;;;;;;-3.50;76.17;97622.56;4920286;28;20043;-72
2021/12/02 13:29:17;;;;;;;2.78;2.08;;;;;;;-3.35;75.69;97627.03;4927607;28;20066;-73
2021/12/02 13:32:04;;;;;;;4.22;2.80;;;;;;;-3.47;76.60;97613.75;4913758;29;20053;-74
2021/12/02 13:34:30;;;;;;;3.92;2.70;;;;;;;-3.32;75.60;97619.09;4925730;29;20058;-75
2021/12/02 13:37:00;;;;;;;4.07;2.58;;;;;;;-3.42;75.87;97619.59;4905545;29;20062;-75
2021/12/02 13:39:30;;;;;;;6.97;3.45;;;;;;;-3.47;75.56;97611.16;4905108;29;20099;-74
2021/12/02 13:42:02;;;;;;;3.50;2.53;;;;;;;-3.53;76.48;97614.91;4920803;29;20119;-75
2021/12/02 13:44:29;;;;;;;7.90;3.58;;;;;;;-3.43;77.05;97600.53;4903763;29;20046;-74
2021/12/02 13:47:02;;;;;;;5.07;3.15;;;;;;;-3.38;76.59;97600.28;4920540;29;20051;-72
2021/12/02 13:49:35;;;;;;;4.55;2.67;;;;;;;-3.34;76.18;97589.66;4920687;29;20043;-74
2021/12/02 13:55:06;;;;;;;2.83;1.75;;;;;;;-3.33;76.58;97588.75;4903504;29;20066;-76
2021/12/02 13:57:50;;;;;;;4.18;3.15;;;;;;;-3.31;77.08;97584.31;4887838;29;20079;-74
2021/12/02 14:00:27;;;;;;;3.72;2.28;;;;;;;-3.27;76.58;97578.94;4903499;29;20103;-75
2021/12/02 14:03:19;;;;;;;3.90;2.13;;;;;;;-3.25;76.39;97572.72;4920353;29;20047;-75
2021/12/02 14:05:47;;;;;;;2.25;1.60;;;;;;;-3.36;76.37;97580.22;4901293;28;20417;-75
2021/12/02 14:08:20;;;;;;;2.67;2.13;;;;;;;-3.45;76.78;97571.09;4934708;28;20045;-77
2021/12/02 14:10:45;;;;;;;3.13;2.13;;;;;;;-3.20;76.53;97581.16;4905710;28;20050;-74
2021/12/02 14:13:21;;;;;;;2.88;1.90;;;;;;;-3.14;76.46;97557.41;4937647;28;20057;-73
2021/12/02 14:15:48;;;;;;;2.33;1.48;;;;;;;-3.17;76.38;97560.19;4932269;28;20039;-72
2021/12/02 14:18:21;;;;;;;5.60;3.00;;;;;;;-3.13;76.48;97555.63;4927703;28;20117;-72
2021/12/02 14:20:57;;;;;;;4.72;2.50;;;;;;;-3.28;76.56;97559.03;4903862;29;20047;-73
2021/12/02 14:23:28;;;;;;;3.47;1.83;;;;;;;-3.32;76.16;97550.50;4903501;29;20130;-74
2021/12/02 14:26:05;;;;;;;6.85;3.00;;;;;;;-3.39;77.16;97557.78;4903302;29;20047;-73
2021/12/02 14:28:31;;;;;;;2.88;2.35;;;;;;;-3.44;77.21;97562.38;4887343;29;20063;-72
2021/12/02 14:30:56;;;;;;;7.68;2.40;;;;;;;-3.41;77.37;97572.66;4902788;29;20075;-72
2021/12/02 14:33:42;;;;;;;2.58;2.38;;;;;;;-3.22;77.20;97576.94;4919775;28;20136;-74
2021/12/02 14:36:14;;;;;;;3.95;2.83;;;;;;;-3.45;77.45;97580.66;4920033;29;20130;-74
2021/12/02 14:38:45;;;;;;;4.70;2.80;;;;;;;-3.30;77.17;97587.75;4887482;29;20582;-75
2021/12/02 14:41:15;;;;;;;4.53;2.75;;;;;;;-3.37;77.08;97596.75;4888206;29;20130;-79
2021/12/02 14:43:57;;;;;;;5.07;3.13;;;;;;;-3.40;77.25;97584.75;4906499;28;20043;-79
2021/12/02 14:46:21;;;;;;;4.80;3.30;;;;;;;-3.42;77.18;97576.16;4928230;28;20042;-78
2021/12/02 14:49:12;;;;;;;4.38;2.90;;;;;;;-3.40;77.17;97582.16;4912053;28;20039;-78
2021/12/02 14:51:58;;;;;;;4.78;2.72;;;;;;;-3.32;77.56;97590.44;4929108;28;20046;-77
2021/12/02 14:54:31;;;;;;;1.90;1.73;;;;;;;-3.24;77.61;97571.81;4915854;28;20153;-75
2021/12/02 14:56:56;;;;;;;7.72;3.72;;;;;;;-3.44;77.67;97579.75;4928517;28;20047;-73
2021/12/02 14:59:24;;;;;;;8.13;3.78;;;;;;;-3.37;77.34;97570.72;4926935;28;20050;-76
2021/12/02 15:02:00;;;;;;;8.05;3.50;;;;;;;-3.24;77.43;97561.38;4912532;28;20394;-77
2021/12/02 15:04:29;;;;;;;5.40;2.90;;;;;;;-3.38;78.42;97569.88;4928922;28;20042;-74
2021/12/02 15:07:06;;;;;;;2.72;2.22;;;;;;;-3.29;80.59;97566.00;4898558;28;20035;-75
2021/12/02 15:09:37;;;;;;;8.43;4.05;;;;;;;-3.33;81.90;97557.47;4930013;28;20051;-76
2021/12/02 15:12:31;;;;;;;4.90;2.90;;;;;;;-3.50;81.54;97547.03;4929595;28;20051;-74
2021/12/02 15:14:59;;;;;;;7.57;4.25;;;;;;;-3.60;81.77;97551.00;4930329;28;20429;-75
2021/12/02 15:17:52;;;;;;;4.18;2.88;;;;;;;-3.47;81.52;97543.44;4928458;28;20031;-75
2021/12/02 15:20:32;;;;;;;7.60;3.83;;;;;;;-3.29;81.96;97555.56;4930189;28;20055;-76
2021/12/02 15:23:10;;;;;;;4.43;2.95;;;;;;;-3.17;81.73;97535.88;4899883;28;20779;-77
2021/12/02 15:25:39;;;;;;;5.85;3.45;;;;;;;-3.20;81.22;97538.63;4910343;28;20042;-75
2021/12/02 15:28:25;;;;;;;21.75;5.38;;;;;;;-3.33;80.73;97534.03;4912609;28;20089;-76
2021/12/02 15:30:53;;;;;;;8.77;3.92;;;;;;;-3.43;80.60;97540.63;4930855;28;20042;-77
2021/12/02 15:33:40;;;;;;;9.80;4.03;;;;;;;-3.36;80.53;97531.56;4928653;28;20047;-74
2021/12/02 15:36:26;;;;;;;7.63;4.03;;;;;;;-3.30;80.89;97523.47;4897445;28;20038;-77
2021/12/02 15:38:54;;;;;;;9.73;4.80;;;;;;;-3.38;82.07;97529.94;4922784;28;20053;-77
2021/12/02 15:41:21;;;;;;;5.72;4.00;;;;;;;-3.41;81.93;97525.75;4940383;28;20537;-79
2021/12/02 15:43:57;;;;;;;10.23;4.97;;;;;;;-3.34;81.52;97516.72;4942932;28;20046;-79
2021/12/02 15:46:35;;;;;;;7.20;3.92;;;;;;;-3.33;82.30;97533.19;4908724;28;20453;-75
2021/12/02 15:49:01;;;;;;;6.68;4.75;;;;;;;-3.35;81.64;97525.44;4923419;28;20058;-77
2021/12/02 15:51:27;;;;;;;6.90;4.07;;;;;;;-3.35;81.72;97517.63;4939672;28;20563;-76
2021/12/02 15:53:52;;;;;;;4.20;2.78;;;;;;;-3.04;80.94;97513.47;4937961;28;20047;-78
2021/12/02 15:56:17;;;;;;;5.80;4.25;;;;;;;-3.08;80.56;97523.22;4904709;28;20042;-75
2021/12/02 15:58:43;;;;;;;7.50;4.20;;;;;;;-3.04;80.75;97519.53;4928353;28;20472;-79
2021/12/02 16:01:10;;;;;;;8.18;4.55;;;;;;;-3.17;81.28;97521.09;4902917;29;20146;-77
2021/12/02 16:03:38;;;;;;;6.68;3.70;;;;;;;-3.11;81.02;97536.41;4902751;29;20043;-75
2021/12/02 16:06:17;;;;;;;5.43;3.75;;;;;;;-3.08;81.57;97528.44;4887411;29;20078;-78
2021/12/02 16:12:03;;;;;;;3.88;2.20;;;;;;;-2.74;79.42;97534.53;4822530;29;20056;-76
2021/12/02 16:14:28;;;;;;;8.73;3.58;;;;;;;-2.78;79.46;97525.16;4807085;29;20057;-74
2021/12/02 16:16:54;;;;;;;5.43;2.95;;;;;;;-2.81;78.66;97534.00;4806650;29;20041;-76
2021/12/02 16:19:19;;;;;;;6.95;3.92;;;;;;;-2.87;78.76;97510.84;4806255;29;20053;-74
2021/12/02 16:21:44;;;;;;;10.25;4.00;;;;;;;-3.02;79.53;97514.25;4803795;29;20041;-74
2021/12/02 16:24:09;;;;;;;4.95;2.97;;;;;;;-2.92;79.86;97518.06;4825213;29;20044;-75
2021/12/02 16:26:34;;;;;;;6.85;4.70;;;;;;;-2.94;79.69;97519.94;4824675;29;20455;-74
2021/12/02 16:28:58;;;;;;;7.05;3.60;;;;;;;-2.93;79.93;97508.53;4824663;29;20532;-73
2021/12/02 16:31:23;;;;;;;8.25;4.90;;;;;;;-2.93;79.15;97517.22;4840121;29;20052;-74
2021/12/02 16:33:50;;;;;;;4.68;2.80;;;;;;;-2.84;79.30;97510.69;4840123;29;20120;-74
2021/12/02 16:36:15;;;;;;;3.55;2.35;;;;;;;-2.78;79.36;97510.38;4840242;29;20556;-75
2021/12/02 16:39:12;;;;;;;6.35;4.25;;;;;;;-2.82;78.94;97506.22;4847496;29;20067;-79
2021/12/02 16:41:37;;;;;;;6.35;3.70;;;;;;;-2.69;78.16;97491.63;4805961;29;20048;-79
2021/12/02 16:44:02;;;;;;;5.28;3.45;;;;;;;-2.51;77.83;97510.69;4833141;29;20056;-76
2021/12/02 16:46:29;;;;;;;6.03;4.22;;;;;;;-2.66;77.77;97504.50;4892460;28;20695;-74
2021/12/02 16:48:54;;;;;;;6.90;4.32;;;;;;;-2.69;77.91;97502.06;4935037;28;20042;-76
2021/12/02 16:51:19;;;;;;;9.05;4.15;;;;;;;-2.86;78.22;97498.66;4914397;29;20057;-76
2021/12/02 16:53:44;;;;;;;4.90;2.50;;;;;;;-2.74;78.44;97498.03;4906151;29;20110;-72
2021/12/02 16:56:09;;;;;;;5.97;3.67;;;;;;;-2.67;78.24;97495.00;4917444;29;20508;-70
2021/12/02 16:58:33;;;;;;;4.25;3.03;;;;;;;-2.59;78.31;97505.03;4903551;29;20416;-72
2021/12/02 17:00:58;;;;;;;6.72;3.58;;;;;;;-2.69;78.56;97498.59;4923752;29;20055;-73
2021/12/02 17:03:24;;;;;;;5.65;3.83;;;;;;;-2.69;78.88;97504.66;4905875;29;20150;-74
2021/12/02 17:05:48;;;;;;;9.13;5.43;;;;;;;-2.99;80.08;97498.44;4921524;29;20038;-75
2021/12/02 17:08:13;;;;;;;4.60;3.55;;;;;;;-2.91;80.86;97496.28;4921330;29;20830;-73
2021/12/02 17:10:40;;;;;;;8.00;4.00;;;;;;;-2.78;80.39;97497.34;4904773;29;20517;-74
2021/12/02 17:13:06;;;;;;;7.05;3.70;;;;;;;-2.60;79.44;97493.78;4888084;29;20071;-73
2021/12/02 17:15:31;;;;;;;5.30;3.72;;;;;;;-2.67;80.15;97487.19;4921246;29;20058;-77
2021/12/02 17:17:59;;;;;;;7.15;4.00;;;;;;;-2.66;79.63;97494.09;4888096;29;20138;-77
2021/12/02 17:20:26;;;;;;;5.90;3.85;;;;;;;-2.64;79.88;97487.03;4921152;29;20059;-72
2021/12/02 17:22:52;;;;;;;6.45;4.03;;;;;;;-2.73;79.64;97481.47;4887617;29;20085;-73
2021/12/02 17:25:19;;;;;;;6.55;4.07;;;;;;;-2.66;80.04;97483.66;4903628;29;20509;-71
2021/12/02 17:27:43;;;;;;;6.78;3.92;;;;;;;-2.62;79.98;97486.94;4903344;29;20047;-70
2021/12/02 17:30:10;;;;;;;5.93;3.55;;;;;;;-2.53;79.80;97483.84;4920512;29;20072;-69
2021/12/02 17:32:36;;;;;;;5.38;3.42;;;;;;;-2.57;79.45;97493.59;4920365;29;20039;-72
2021/12/02 17:35:00;;;;;;;8.45;4.50;;;;;;;-2.64;80.41;97491.41;4903500;29;20094;-75
2021/12/02 17:37:26;;;;;;;6.90;4.13;;;;;;;-2.61;80.45;97499.91;4920003;29;20039;-71
2021/12/02 17:39:51;;;;;;;6.88;3.78;;;;;;;-2.61;80.08;97489.47;4903537;29;20051;-73
2021/12/02 17:42:19;;;;;;;7.07;3.53;;;;;;;-2.43;80.05;97499.84;4887818;29;20058;-74
2021/12/02 17:44:44;;;;;;;5.70;4.28;;;;;;;-2.55;80.16;97490.91;4920578;29;20084;-76
2021/12/02 17:47:10;;;;;;;5.85;4.55;;;;;;;-2.62;80.74;97492.16;4903468;29;20050;-75
2021/12/02 17:49:35;;;;;;;5.18;3.90;;;;;;;-2.64;81.13;97484.41;4903290;29;20054;-74
2021/12/02 17:52:01;;;;;;;9.10;4.45;;;;;;;-2.67;81.15;97492.41;4920403;29;20050;-74
2021/12/02 17:54:26;;;;;;;5.97;3.90;;;;;;;-2.53;81.59;97493.44;4921621;28;20065;-74
2021/12/02 17:56:53;;;;;;;5.50;3.33;;;;;;;-2.34;80.71;97487.13;4873813;29;20056;-74
2021/12/02 17:59:18;;;;;;;2.97;2.03;;;;;;;-2.33;80.48;97486.22;4887533;29;20048;-75
2021/12/02 18:01:45;;;;;;;5.53;4.20;;;;;;;-2.34;80.65;97494.13;4872892;29;20047;-73
2021/12/02 18:04:11;;;;;;;7.82;4.55;;;;;;;-2.45;81.28;97486.03;4865416;29;20431;-70
2021/12/02 18:06:36;;;;;;;10.15;5.68;;;;;;;-2.42;80.74;97494.53;4887494;29;20052;-70
2021/12/02 18:09:01;;;;;;;6.43;4.63;;;;;;;-2.46;81.51;97486.94;4887643;29;20131;-74
2021/12/02 18:11:26;;;;;;;9.50;5.00;;;;;;;-2.46;81.49;97484.34;4888440;29;20082;-73
2021/12/02 18:13:51;;;;;;;5.63;3.05;;;;;;;-2.27;81.40;97480.69;4871240;29;20130;-72
2021/12/02 18:16:15;;;;;;;10.10;6.15;;;;;;;-2.25;80.91;97477.97;4880539;29;20146;-70
2021/12/02 18:18:41;;;;;;;6.80;4.80;;;;;;;-2.27;81.38;97483.28;4871068;29;20603;-71
2021/12/02 18:21:09;;;;;;;12.02;5.68;;;;;;;-2.32;81.33;97474.00;4857423;29;20040;-69
2021/12/02 18:23:34;;;;;;;10.82;6.30;;;;;;;-2.29;81.21;97487.75;4852276;29;20102;-71
2021/12/02 18:25:59;;;;;;;10.73;6.70;;;;;;;-2.23;81.25;97468.28;4889073;29;20048;-71
2021/12/02 18:28:24;;;;;;;6.80;4.25;;;;;;;-2.17;81.39;97475.78;4899720;28;20047;-71
2021/12/02 18:30:49;;;;;;;12.10;5.75;;;;;;;-2.22;81.54;97477.78;4902602;28;20124;-72
2021/12/02 18:33:15;;;;;;;11.75;5.85;;;;;;;-2.25;81.85;97472.75;4929391;28;20806;-72
2021/12/02 18:35:39;;;;;;;8.95;5.03;;;;;;;-2.22;81.77;97486.47;4928204;28;20054;-72
2021/12/02 18:38:05;;;;;;;9.90;5.25;;;;;;;-2.16;81.41;97469.66;4898928;28;20039;-73
2021/12/02 18:40:31;;;;;;;11.20;5.80;;;;;;;-2.30;82.16;97470.41;4928765;28;20046;-74
2021/12/02 18:42:57;;;;;;;14.13;8.40;;;;;;;-2.26;82.43;97477.13;4919487;28;20050;-75
2021/12/02 18:45:22;;;;;;;13.48;6.72;;;;;;;-2.12;82.03;97473.75;4923175;28;20055;-77
2021/12/02 18:47:48;;;;;;;11.23;6.65;;;;;;;-2.21;81.98;97464.66;4939977;28;20050;-74
2021/12/02 18:50:14;;;;;;;12.43;6.93;;;;;;;-2.17;82.13;97472.34;4915902;28;20038;-73
2021/12/02 18:52:39;;;;;;;11.57;6.60;;;;;;;-2.14;82.14;97470.38;4911062;28;20060;-73
2021/12/02 18:55:05;;;;;;;9.40;6.18;;;;;;;-2.15;82.98;97471.34;4929269;28;20054;-73
2021/12/02 18:57:30;;;;;;;14.73;6.35;;;;;;;-2.09;82.74;97476.19;4910608;28;20050;-72
2021/12/02 18:59:56;;;;;;;10.20;7.05;;;;;;;-2.03;82.49;97488.09;4911550;28;20054;-71
2021/12/02 19:02:23;;;;;;;11.95;6.57;;;;;;;-1.89;82.41;97475.09;4911763;28;20042;-72
2021/12/02 19:04:56;;;;;;;12.73;7.18;;;;;;;-1.97;82.64;97472.91;4910110;28;20047;-71
2021/12/02 19:07:39;;;;;;;;;;;;;;;-2.02;82.79;97471.47;4916853;28;20066;-72
2021/12/02 19:26:30;;;;;;;12.95;8.05;;;;;;;-1.69;82.98;97487.03;4911444;28;20047;-72
2021/12/02 19:29:03;;;;;;;15.48;7.20;;;;;;;-1.72;82.98;97482.81;4884376;28;20474;-71